createdAt,value
2018-12-09T00:01:01.797Z,8.17
2018-12-09T00:03:33.433Z,9.67
2018-12-09T00:06:06.037Z,8.30
2018-12-09T00:08:50.441Z,15.10
2018-12-09T00:11:20.209Z,8.10
2018-12-09T00:13:49.846Z,9.73
2018-12-09T00:16:19.630Z,8.00
2018-12-09T00:18:49.976Z,9.23
2018-12-09T00:21:20.288Z,14.13
2018-12-09T00:23:50.108Z,11.40
2018-12-09T00:26:21.835Z,10.60
2018-12-09T00:28:51.519Z,13.27
2018-12-09T00:31:21.209Z,15.87
2018-12-09T00:34:12.297Z,7.67
2018-12-09T00:36:48.699Z,8.37
2018-12-09T00:39:18.581Z,9.70
2018-12-09T00:41:48.250Z,7.50
2018-12-09T00:44:23.372Z,5.80
2018-12-09T00:46:53.049Z,10.03
2018-12-09T00:49:22.751Z,6.90
2018-12-09T00:51:52.413Z,7.83
2018-12-09T00:54:22.090Z,8.50
2018-12-09T00:56:51.749Z,5.60
2018-12-09T00:59:21.399Z,5.00
2018-12-09T01:01:51.234Z,6.43
2018-12-09T01:04:20.878Z,5.67
2018-12-09T01:06:50.682Z,6.17
2018-12-09T01:09:20.644Z,8.47
2018-12-09T01:11:50.309Z,7.40
2018-12-09T01:14:19.985Z,8.83
2018-12-09T01:16:49.768Z,7.90
2018-12-09T01:19:19.469Z,3.57
2018-12-09T01:21:49.162Z,5.80
2018-12-09T01:27:15.004Z,4.30
2018-12-09T01:29:45.602Z,4.63
2018-12-09T01:32:15.514Z,5.13
2018-12-09T01:34:51.547Z,6.50
2018-12-09T01:37:21.217Z,6.10
2018-12-09T01:39:51.507Z,5.77
2018-12-09T01:42:21.328Z,6.10
2018-12-09T01:44:51.757Z,7.53
2018-12-09T01:47:21.457Z,9.07
2018-12-09T01:49:51.538Z,6.67
2018-12-09T01:52:21.192Z,8.97
2018-12-09T01:54:50.823Z,13.37
2018-12-09T01:57:20.499Z,14.40
2018-12-09T01:59:50.866Z,17.37
2018-12-09T02:02:20.548Z,13.83
2018-12-09T02:04:50.246Z,11.27
2018-12-09T02:07:33.213Z,11.10
2018-12-09T02:10:02.946Z,16.63
2018-12-09T02:12:32.628Z,11.43
2018-12-09T02:17:58.064Z,8.30
2018-12-09T02:20:27.697Z,5.90
2018-12-09T02:22:57.405Z,6.87
2018-12-09T02:25:27.457Z,5.47
2018-12-09T02:27:57.126Z,6.37
2018-12-09T02:30:26.780Z,6.70
2018-12-09T02:32:56.500Z,5.40
2018-12-09T02:35:26.856Z,8.37
2018-12-09T02:37:56.492Z,9.07
2018-12-09T02:40:26.112Z,16.50
2018-12-09T02:42:55.801Z,10.27
2018-12-09T02:45:25.428Z,14.50
2018-12-09T02:47:55.117Z,12.90
2018-12-09T02:50:24.766Z,7.47
2018-12-09T02:52:54.408Z,9.90
2018-12-09T02:55:24.069Z,21.87
2018-12-09T02:57:53.726Z,11.70
2018-12-09T03:00:23.368Z,8.37
2018-12-09T03:02:53.081Z,7.57
2018-12-09T03:05:22.726Z,13.67
2018-12-09T03:07:52.374Z,16.23
2018-12-09T03:10:22.651Z,7.90
2018-12-09T03:12:52.268Z,14.97
2018-12-09T03:15:22.006Z,14.37
2018-12-09T03:17:51.976Z,12.23
2018-12-09T03:20:21.610Z,13.37
2018-12-09T03:22:51.249Z,8.57
2018-12-09T03:25:20.870Z,11.80
2018-12-09T03:27:50.890Z,9.40
2018-12-09T03:30:20.566Z,12.13
2018-12-09T03:32:50.253Z,7.77
2018-12-09T03:35:19.941Z,10.90
2018-12-09T03:37:49.667Z,10.50
2018-12-09T03:40:19.406Z,14.13
2018-12-09T03:42:49.279Z,15.33
2018-12-09T03:45:18.998Z,14.87
2018-12-09T03:47:48.811Z,16.07
2018-12-09T03:50:19.443Z,18.43
2018-12-09T03:52:50.172Z,11.97
2018-12-09T03:55:19.808Z,16.33
2018-12-09T03:57:49.511Z,9.90
2018-12-09T04:00:19.601Z,13.77
2018-12-09T04:02:49.578Z,13.77
2018-12-09T04:05:19.265Z,8.90
2018-12-09T04:07:50.627Z,8.53
2018-12-09T04:10:20.539Z,11.93
2018-12-09T04:12:50.262Z,14.07
2018-12-09T04:15:19.879Z,12.87
2018-12-09T04:17:49.589Z,5.80
2018-12-09T04:20:19.344Z,12.07
2018-12-09T04:22:49.100Z,10.40
2018-12-09T04:25:18.717Z,10.60
2018-12-09T04:27:48.356Z,14.73
2018-12-09T04:30:18.070Z,12.23
2018-12-09T04:32:47.731Z,14.40
2018-12-09T04:35:17.366Z,11.50
2018-12-09T04:37:47.037Z,8.73
2018-12-09T04:40:16.629Z,11.23
2018-12-09T04:42:53.173Z,12.20
2018-12-09T04:45:22.914Z,11.53
2018-12-09T04:47:52.558Z,10.50
2018-12-09T04:50:40.138Z,10.40
2018-12-09T04:53:15.363Z,11.67
2018-12-09T04:55:44.997Z,10.93
2018-12-09T04:58:14.651Z,8.43
2018-12-09T05:00:54.544Z,7.90
2018-12-09T05:03:24.210Z,11.70
2018-12-09T05:05:53.842Z,8.07
2018-12-09T05:08:23.575Z,12.37
2018-12-09T05:10:53.257Z,9.90
2018-12-09T05:13:23.050Z,14.00
2018-12-09T05:15:52.737Z,8.00
2018-12-09T05:18:23.230Z,9.73
2018-12-09T05:20:52.926Z,8.70
2018-12-09T05:23:22.641Z,12.17
2018-12-09T05:25:52.323Z,8.67
2018-12-09T05:28:21.974Z,6.50
2018-12-09T05:30:51.891Z,8.93
2018-12-09T05:33:38.224Z,9.30
2018-12-09T05:36:08.230Z,6.10
2018-12-09T05:38:37.936Z,8.23
2018-12-09T05:41:07.728Z,7.27
2018-12-09T05:43:37.386Z,8.17
2018-12-09T05:46:08.487Z,3.83
2018-12-09T05:48:38.393Z,6.47
2018-12-09T05:51:08.103Z,5.77
2018-12-09T05:53:37.863Z,7.97
2018-12-09T05:56:07.486Z,5.80
2018-12-09T05:58:37.178Z,6.17
2018-12-09T06:01:07.222Z,9.20
2018-12-09T06:03:36.989Z,6.20
2018-12-09T06:06:06.785Z,6.90
2018-12-09T06:08:36.481Z,8.63
2018-12-09T06:11:06.111Z,4.63
2018-12-09T06:13:35.870Z,6.93
2018-12-09T06:16:05.516Z,6.87
2018-12-09T06:18:35.622Z,6.17
2018-12-09T06:21:05.234Z,9.00
2018-12-09T06:23:35.248Z,10.17
2018-12-09T06:26:04.867Z,9.37
2018-12-09T06:28:34.602Z,14.50
2018-12-09T06:31:04.429Z,12.67
2018-12-09T06:33:34.080Z,8.07
2018-12-09T06:36:03.774Z,9.73
2018-12-09T06:38:33.381Z,9.67
2018-12-09T06:41:03.102Z,9.10
2018-12-09T06:43:32.812Z,5.37
2018-12-09T06:48:55.350Z,9.40
2018-12-09T06:51:25.003Z,13.43
2018-12-09T06:53:54.767Z,9.53
2018-12-09T06:56:27.252Z,6.10
2018-12-09T06:58:56.956Z,8.17
2018-12-09T07:01:27.253Z,11.67
2018-12-09T07:03:57.344Z,8.53
2018-12-09T07:06:28.021Z,9.37
2018-12-09T07:08:57.713Z,8.60
2018-12-09T07:11:27.423Z,5.73
2018-12-09T07:13:57.231Z,8.90
2018-12-09T07:16:26.993Z,7.67
2018-12-09T07:18:56.701Z,10.93
2018-12-09T07:21:27.160Z,13.80
2018-12-09T07:23:56.818Z,8.73
2018-12-09T07:26:26.814Z,12.30
2018-12-09T07:28:56.458Z,9.87
2018-12-09T07:31:26.144Z,10.90
2018-12-09T07:33:56.422Z,11.17
2018-12-09T07:36:26.145Z,8.30
2018-12-09T07:38:55.805Z,18.37
2018-12-09T07:41:26.578Z,12.20
2018-12-09T07:43:56.227Z,9.87
2018-12-09T07:46:25.986Z,8.13
2018-12-09T07:48:56.279Z,12.47
2018-12-09T07:51:26.036Z,10.43
2018-12-09T07:53:55.661Z,10.00
2018-12-09T07:56:25.413Z,11.40
2018-12-09T07:59:16.622Z,10.73
2018-12-09T08:01:46.296Z,11.43
2018-12-09T08:04:15.998Z,11.23
2018-12-09T08:06:45.798Z,19.33
2018-12-09T08:09:15.525Z,11.20
2018-12-09T08:11:45.417Z,11.40
2018-12-09T08:14:15.257Z,12.80
2018-12-09T08:16:45.199Z,14.03
2018-12-09T08:19:15.445Z,12.73
2018-12-09T08:21:45.137Z,4.90
2018-12-09T08:24:14.928Z,2.87
2018-12-09T08:26:44.729Z,2.37
2018-12-09T08:29:14.500Z,3.77
2018-12-09T08:31:44.494Z,2.50
2018-12-09T08:34:14.199Z,4.20
2018-12-09T08:36:44.009Z,1.43
2018-12-09T08:39:14.825Z,2.10
2018-12-09T08:41:44.798Z,3.33
2018-12-09T08:44:15.423Z,3.13
2018-12-09T08:46:45.120Z,2.90
2018-12-09T08:49:14.961Z,0.87
2018-12-09T08:51:44.672Z,1.67
2018-12-09T08:54:14.365Z,2.23
2018-12-09T08:56:44.803Z,2.00
2018-12-09T08:59:14.542Z,1.00
2018-12-09T09:01:44.224Z,0.47
2018-12-09T09:04:14.992Z,2.10
2018-12-09T09:06:44.792Z,2.60
2018-12-09T09:09:14.729Z,0.37
2018-12-09T09:11:44.413Z,0.30
2018-12-09T09:14:14.978Z,0.30
2018-12-09T09:16:44.941Z,0.47
2018-12-09T09:19:15.897Z,0.30
2018-12-09T09:21:45.746Z,0.60
2018-12-09T09:24:15.526Z,0.70
2018-12-09T09:26:45.325Z,0.90
2018-12-09T09:29:15.085Z,1.87
2018-12-09T09:31:44.830Z,1.03
2018-12-09T09:34:14.555Z,1.10
2018-12-09T09:36:44.464Z,0.53
2018-12-09T09:39:14.196Z,1.07
2018-12-09T09:41:43.944Z,3.00
2018-12-09T09:44:13.588Z,0.90
2018-12-09T09:46:43.387Z,1.20
2018-12-09T09:49:13.221Z,1.30
2018-12-09T09:51:42.952Z,1.47
2018-12-09T09:54:12.634Z,0.60
2018-12-09T09:56:42.369Z,1.43
2018-12-09T09:59:24.032Z,1.17
2018-12-09T10:01:53.788Z,0.80
2018-12-09T10:04:23.550Z,0.93
2018-12-09T10:06:53.248Z,1.43
2018-12-09T10:09:23.669Z,0.93
2018-12-09T10:11:53.339Z,1.50
2018-12-09T10:14:23.021Z,2.03
2018-12-09T10:16:53.189Z,1.33
2018-12-09T10:19:23.065Z,2.83
2018-12-09T10:21:53.501Z,0.93
2018-12-09T10:24:23.371Z,0.73
2018-12-09T10:26:53.192Z,2.30
2018-12-09T10:29:22.878Z,1.90
2018-12-09T10:31:52.651Z,2.63
2018-12-09T10:34:22.330Z,1.43
2018-12-09T10:36:52.145Z,0.77
2018-12-09T10:39:21.996Z,1.13
2018-12-09T10:41:51.876Z,0.67
2018-12-09T10:44:22.402Z,1.00
2018-12-09T10:46:53.238Z,1.60
2018-12-09T10:49:23.039Z,1.03
2018-12-09T10:51:53.328Z,2.00
2018-12-09T10:54:23.235Z,1.53
2018-12-09T10:56:54.992Z,0.97
2018-12-09T10:59:24.752Z,1.83
2018-12-09T11:02:00.554Z,2.70
2018-12-09T11:04:31.330Z,3.73
2018-12-09T11:07:01.113Z,2.37
2018-12-09T11:09:30.769Z,1.60
2018-12-09T11:12:01.178Z,2.93
2018-12-09T11:14:30.814Z,2.93
2018-12-09T11:17:00.802Z,1.50
2018-12-09T11:19:30.627Z,1.30
2018-12-09T11:22:00.373Z,1.60
2018-12-09T11:24:30.011Z,2.00
2018-12-09T11:26:59.716Z,1.37
2018-12-09T11:29:29.546Z,3.53
2018-12-09T11:31:59.322Z,4.90
2018-12-09T11:34:29.157Z,2.97
2018-12-09T11:36:58.865Z,6.27
2018-12-09T11:39:28.638Z,1.50
2018-12-09T11:41:58.518Z,4.30
2018-12-09T11:44:28.296Z,6.57
2018-12-09T11:46:58.663Z,3.17
2018-12-09T11:49:28.419Z,4.50
2018-12-09T11:51:58.410Z,4.40
2018-12-09T11:54:28.398Z,5.07
2018-12-09T11:56:58.239Z,1.93
2018-12-09T11:59:27.933Z,2.60
2018-12-09T12:01:57.840Z,1.67
2018-12-09T12:04:27.696Z,4.07
2018-12-09T12:06:57.453Z,5.17
2018-12-09T12:09:27.338Z,1.90
2018-12-09T12:11:57.067Z,3.93
2018-12-09T12:14:27.108Z,3.83
2018-12-09T12:16:57.031Z,5.10
2018-12-09T12:19:26.783Z,2.57
2018-12-09T12:21:56.629Z,2.53
2018-12-09T12:24:26.515Z,1.77
2018-12-09T12:26:56.333Z,3.53
2018-12-09T12:29:26.103Z,4.60
2018-12-09T12:31:56.693Z,6.13
2018-12-09T12:34:26.366Z,5.30
2018-12-09T12:36:56.186Z,2.83
2018-12-09T12:39:25.953Z,5.87
2018-12-09T12:41:55.726Z,4.57
2018-12-09T12:44:25.541Z,2.63
2018-12-09T12:46:55.479Z,3.63
2018-12-09T12:49:25.217Z,5.23
2018-12-09T12:51:56.318Z,3.53
2018-12-09T12:54:26.022Z,2.97
2018-12-09T12:56:56.691Z,5.43
2018-12-09T12:59:26.485Z,1.37
2018-12-09T13:02:06.489Z,2.50
2018-12-09T13:04:37.070Z,7.37
2018-12-09T13:07:06.963Z,6.10
2018-12-09T13:09:37.266Z,3.07
2018-12-09T13:12:07.163Z,4.40
2018-12-09T13:14:36.915Z,5.30
2018-12-09T13:17:06.700Z,8.03
2018-12-09T13:19:36.376Z,3.23
2018-12-09T13:22:06.060Z,6.03
2018-12-09T13:24:36.938Z,7.03
2018-12-09T13:27:07.467Z,4.63
2018-12-09T13:29:37.151Z,2.70
2018-12-09T13:32:07.370Z,5.97
2018-12-09T13:34:37.638Z,6.30
2018-12-09T13:37:10.315Z,3.33
2018-12-09T13:39:40.319Z,2.83
2018-12-09T13:42:10.147Z,3.90
2018-12-09T13:44:40.774Z,7.47
2018-12-09T13:47:10.595Z,5.50
2018-12-09T13:49:40.425Z,8.57
2018-12-09T13:52:10.355Z,5.63
2018-12-09T13:54:40.120Z,4.33
2018-12-09T13:57:09.786Z,6.97
2018-12-09T13:59:39.511Z,4.27
2018-12-09T14:02:10.384Z,5.73
2018-12-09T14:04:40.090Z,3.93
2018-12-09T14:07:09.958Z,3.67
2018-12-09T14:09:39.643Z,3.03
2018-12-09T14:12:09.319Z,7.30
2018-12-09T14:14:39.150Z,7.73
2018-12-09T14:17:09.023Z,3.93
2018-12-09T14:19:38.949Z,4.43
2018-12-09T14:22:08.637Z,4.83
2018-12-09T14:24:38.398Z,5.50
2018-12-09T14:27:08.079Z,4.13
2018-12-09T14:29:38.284Z,13.63
2018-12-09T14:32:08.715Z,4.73
2018-12-09T14:34:38.630Z,4.93
2018-12-09T14:37:08.410Z,6.83
2018-12-09T14:39:39.189Z,4.53
2018-12-09T14:42:09.452Z,5.00
2018-12-09T14:44:39.255Z,8.23
2018-12-09T14:47:09.212Z,6.17
2018-12-09T14:49:38.924Z,5.87
2018-12-09T14:52:09.267Z,6.23
2018-12-09T14:54:39.091Z,6.63
2018-12-09T14:57:08.802Z,4.53
2018-12-09T14:59:38.519Z,7.00
2018-12-09T15:02:08.401Z,10.80
2018-12-09T15:04:38.159Z,4.67
2018-12-09T15:07:07.934Z,10.00
2018-12-09T15:09:38.121Z,4.93
2018-12-09T15:12:09.327Z,10.27
2018-12-09T15:14:39.095Z,6.20
2018-12-09T15:17:08.919Z,6.27
2018-12-09T15:19:38.632Z,7.50
2018-12-09T15:22:08.389Z,6.67
2018-12-09T15:24:41.611Z,6.30
2018-12-09T15:27:09.825Z,5.70
2018-12-09T15:29:39.631Z,5.10
2018-12-09T15:32:09.962Z,5.17
2018-12-09T15:34:39.800Z,6.00
2018-12-09T15:37:09.603Z,6.60
2018-12-09T15:39:40.180Z,12.50
2018-12-09T15:42:10.487Z,7.87
2018-12-09T15:44:40.200Z,4.57
2018-12-09T15:47:09.945Z,7.80
2018-12-09T15:49:39.734Z,4.30
2018-12-09T15:52:09.518Z,3.93
2018-12-09T15:54:39.536Z,5.63
2018-12-09T15:57:09.248Z,6.67
2018-12-09T15:59:39.466Z,7.40
2018-12-09T16:02:09.265Z,5.83
2018-12-09T16:04:46.253Z,6.13
2018-12-09T16:07:19.166Z,10.47
2018-12-09T16:09:48.948Z,8.63
2018-12-09T16:12:18.732Z,3.60
2018-12-09T16:14:49.218Z,4.87
2018-12-09T16:17:19.014Z,3.83
2018-12-09T16:19:48.749Z,10.20
2018-12-09T16:22:18.514Z,3.17
2018-12-09T16:24:48.394Z,5.80
2018-12-09T16:27:18.571Z,5.30
2018-12-09T16:29:48.977Z,6.83
2018-12-09T16:32:18.741Z,6.27
2018-12-09T16:34:48.489Z,6.13
2018-12-09T16:37:18.252Z,5.33
2018-12-09T16:39:47.980Z,5.03
2018-12-09T16:42:17.700Z,5.53
2018-12-09T16:44:48.166Z,4.63
2018-12-09T16:47:17.943Z,4.00
2018-12-09T16:49:47.694Z,5.67
2018-12-09T16:52:18.074Z,5.13
2018-12-09T16:54:47.734Z,7.30
2018-12-09T16:57:17.462Z,6.37
2018-12-09T16:59:47.270Z,9.57
2018-12-09T17:02:17.047Z,5.20
2018-12-09T17:04:46.895Z,6.53
2018-12-09T17:07:17.468Z,4.77
2018-12-09T17:10:06.933Z,5.17
2018-12-09T17:12:36.909Z,8.03
2018-12-09T17:15:07.120Z,6.33
2018-12-09T17:17:37.444Z,9.07
2018-12-09T17:20:08.063Z,10.23
2018-12-09T17:22:37.880Z,5.70
2018-12-09T17:25:18.359Z,6.17
2018-12-09T17:27:48.170Z,7.70
2018-12-09T17:30:17.899Z,9.27
2018-12-09T17:32:48.393Z,8.40
2018-12-09T17:35:18.155Z,10.07
2018-12-09T17:37:47.942Z,7.17
2018-12-09T17:40:18.173Z,8.67
2018-12-09T17:42:47.918Z,9.67
2018-12-09T17:45:18.552Z,5.90
2018-12-09T17:47:48.300Z,9.83
2018-12-09T17:50:18.335Z,6.83
2018-12-09T17:52:48.291Z,9.67
2018-12-09T17:55:18.429Z,9.60
2018-12-09T17:57:48.173Z,4.40
2018-12-09T18:00:18.058Z,4.10
2018-12-09T18:02:48.241Z,10.80
2018-12-09T18:05:18.145Z,11.20
2018-12-09T18:07:48.228Z,11.23
2018-12-09T18:10:18.075Z,9.57
2018-12-09T18:12:48.433Z,12.73
2018-12-09T18:15:22.328Z,15.30
2018-12-09T18:17:52.157Z,8.33
2018-12-09T18:20:22.039Z,10.23
2018-12-09T18:22:52.277Z,9.07
2018-12-09T18:25:22.180Z,11.80
2018-12-09T18:27:58.301Z,7.33
2018-12-09T18:30:28.174Z,11.70
2018-12-09T18:32:58.222Z,11.83
2018-12-09T18:35:28.608Z,10.17
2018-12-09T18:37:58.719Z,8.17
2018-12-09T18:40:28.496Z,12.03
2018-12-09T18:42:58.865Z,8.77
2018-12-09T18:45:28.823Z,12.77
2018-12-09T18:47:58.671Z,9.70
2018-12-09T18:50:29.049Z,14.87
2018-12-09T18:52:58.951Z,11.40
2018-12-09T18:55:28.887Z,12.07
2018-12-09T18:57:58.788Z,11.07
2018-12-09T19:00:28.716Z,13.13
2018-12-09T19:02:58.550Z,9.97
2018-12-09T19:05:47.051Z,9.80
2018-12-09T19:08:17.010Z,5.50
2018-12-09T19:10:47.103Z,9.63
2018-12-09T19:13:17.140Z,10.00
2018-12-09T19:15:47.091Z,6.53
2018-12-09T19:18:18.220Z,11.40
2018-12-09T19:20:48.089Z,12.53
2018-12-09T19:23:17.951Z,9.07
2018-12-09T19:25:48.092Z,14.30
2018-12-09T19:28:21.634Z,9.97
2018-12-09T19:30:52.760Z,13.60
2018-12-09T19:33:22.850Z,23.07
2018-12-09T19:38:40.041Z,7.40
2018-12-09T19:41:04.621Z,15.50
2018-12-09T19:43:34.472Z,8.87
2018-12-09T19:46:04.765Z,11.63
2018-12-09T19:48:34.497Z,12.00
2018-12-09T19:51:04.643Z,7.17
2018-12-09T19:53:34.703Z,10.77
2018-12-09T19:56:05.213Z,9.27
2018-12-09T19:58:35.601Z,9.17
2018-12-09T20:01:06.036Z,7.70
2018-12-09T20:03:35.964Z,13.47
2018-12-09T20:06:07.217Z,14.23
2018-12-09T20:08:37.920Z,10.60
2018-12-09T20:11:08.523Z,11.53
2018-12-09T20:13:39.569Z,8.07
2018-12-09T20:16:09.774Z,5.20
2018-12-09T20:18:41.877Z,11.90
2018-12-09T20:21:12.671Z,12.13
2018-12-09T20:23:43.700Z,15.70
2018-12-09T20:26:15.226Z,11.93
2018-12-09T20:28:46.877Z,12.27
2018-12-09T20:31:16.840Z,7.23
2018-12-09T20:33:49.002Z,15.23
2018-12-09T20:36:19.044Z,10.83
2018-12-09T20:38:49.205Z,7.23
2018-12-09T20:41:19.621Z,7.53
2018-12-09T20:43:49.640Z,12.47
2018-12-09T20:46:19.941Z,12.63
2018-12-09T20:48:50.664Z,12.83
2018-12-09T20:51:20.640Z,10.90
2018-12-09T20:53:50.910Z,9.50
2018-12-09T20:56:22.991Z,10.27
2018-12-09T20:58:53.641Z,10.70
2018-12-09T21:01:23.911Z,9.60
2018-12-09T21:03:53.935Z,16.10
2018-12-09T21:06:24.630Z,10.17
2018-12-09T21:08:54.752Z,14.10
2018-12-09T21:11:25.764Z,9.37
2018-12-09T21:13:55.734Z,8.53
2018-12-09T21:16:28.031Z,10.73
2018-12-09T21:18:58.335Z,11.83
2018-12-09T21:21:28.283Z,9.23
2018-12-09T21:23:58.899Z,9.90
2018-12-09T21:26:29.449Z,11.87
2018-12-09T21:29:12.412Z,9.30
2018-12-09T21:31:44.931Z,17.50
2018-12-09T21:34:14.739Z,16.17
2018-12-09T21:36:44.633Z,12.83
2018-12-09T21:39:15.441Z,11.27
2018-12-09T21:41:45.198Z,11.70
2018-12-09T21:44:15.123Z,8.97
2018-12-09T21:46:45.026Z,9.47
2018-12-09T21:49:15.576Z,11.43
2018-12-09T21:51:45.372Z,11.60
2018-12-09T21:54:16.067Z,14.10
2018-12-09T21:56:46.172Z,9.30
2018-12-09T21:59:16.096Z,11.40
2018-12-09T22:01:45.903Z,14.27
2018-12-09T22:04:15.681Z,11.47
2018-12-09T22:06:46.813Z,10.03
2018-12-09T22:09:17.861Z,15.23
2018-12-09T22:11:47.689Z,11.77
2018-12-09T22:14:17.817Z,11.43
2018-12-09T22:16:47.737Z,9.07
2018-12-09T22:19:17.535Z,9.77
2018-12-09T22:21:47.232Z,13.50
2018-12-09T22:24:16.869Z,9.20
2018-12-09T22:26:46.572Z,10.23
2018-12-09T22:29:16.373Z,8.30
2018-12-09T22:31:46.141Z,9.20
2018-12-09T22:34:17.939Z,10.83
2018-12-09T22:36:48.302Z,12.13
2018-12-09T22:39:18.015Z,11.57
2018-12-09T22:41:47.853Z,10.50
2018-12-09T22:44:17.527Z,12.33
2018-12-09T22:46:47.295Z,15.80
2018-12-09T22:49:16.936Z,13.00
2018-12-09T22:51:46.648Z,9.57
2018-12-09T22:54:18.031Z,4.40
2018-12-09T22:56:47.956Z,12.90
2018-12-09T22:59:17.769Z,15.00
2018-12-09T23:01:53.484Z,10.93
2018-12-09T23:04:23.184Z,14.00
2018-12-09T23:06:55.804Z,7.70
2018-12-09T23:09:25.555Z,8.50
2018-12-09T23:11:55.313Z,13.73
2018-12-09T23:14:25.107Z,10.77
2018-12-09T23:16:55.002Z,14.37
2018-12-09T23:19:24.650Z,11.33
2018-12-09T23:21:54.350Z,7.27
2018-12-09T23:24:23.990Z,12.80
2018-12-09T23:26:53.663Z,10.80
2018-12-09T23:29:23.307Z,4.67
2018-12-09T23:31:53.236Z,10.40
2018-12-09T23:34:23.073Z,7.90
2018-12-09T23:36:52.972Z,8.10
2018-12-09T23:39:22.698Z,7.93
2018-12-09T23:41:52.704Z,9.37
2018-12-09T23:44:23.250Z,8.30
2018-12-09T23:46:52.925Z,9.50
2018-12-09T23:49:22.759Z,7.93
2018-12-09T23:51:52.521Z,11.23
2018-12-09T23:54:22.208Z,15.93
2018-12-09T23:56:51.899Z,13.83
2018-12-09T23:59:22.614Z,5.43
